sensor_id;sensor_type;location;lat;lon;timestamp;P1;durP1;ratioP1;P2;durP2;ratioP2
73296;SDS011;61524;50.938;11.396;2022-07-29T00:02:00;5.38;;;1.70;;
73296;SDS011;61524;50.938;11.396;2022-07-29T00:04:25;6.57;;;1.88;;
73296;SDS011;61524;50.938;11.396;2022-07-29T00:06:51;9.70;;;2.92;;
73296;SDS011;61524;50.938;11.396;2022-07-29T00:09:16;3.95;;;2.05;;
73296;SDS011;61524;50.938;11.396;2022-07-29T00:11:41;9.43;;;1.90;;
73296;SDS011;61524;50.938;11.396;2022-07-29T00:14:07;8.63;;;1.80;;
73296;SDS011;61524;50.938;11.396;2022-07-29T00:16:33;8.35;;;1.80;;
73296;SDS011;61524;50.938;11.396;2022-07-29T00:18:58;3.45;;;1.55;;
73296;SDS011;61524;50.938;11.396;2022-07-29T00:21:24;4.30;;;1.67;;
73296;SDS011;61524;50.938;11.396;2022-07-29T00:23:49;6.13;;;1.65;;
73296;SDS011;61524;50.938;11.396;2022-07-29T00:26:15;3.92;;;1.83;;
73296;SDS011;61524;50.938;11.396;2022-07-29T00:28:40;6.70;;;2.15;;
73296;SDS011;61524;50.938;11.396;2022-07-29T00:31:06;8.30;;;1.92;;
73296;SDS011;61524;50.938;11.396;2022-07-29T00:33:32;7.25;;;1.80;;
73296;SDS011;61524;50.938;11.396;2022-07-29T00:35:58;6.50;;;2.05;;
73296;SDS011;61524;50.938;11.396;2022-07-29T00:38:23;5.88;;;1.67;;
73296;SDS011;61524;50.938;11.396;2022-07-29T00:40:49;3.55;;;1.42;;
73296;SDS011;61524;50.938;11.396;2022-07-29T00:43:15;5.55;;;1.67;;
73296;SDS011;61524;50.938;11.396;2022-07-29T00:45:42;5.30;;;1.60;;
73296;SDS011;61524;50.938;11.396;2022-07-29T00:48:08;7.03;;;1.77;;
73296;SDS011;61524;50.938;11.396;2022-07-29T00:50:34;4.72;;;1.60;;
73296;SDS011;61524;50.938;11.396;2022-07-29T00:53:00;4.43;;;1.65;;
73296;SDS011;61524;50.938;11.396;2022-07-29T00:55:27;5.13;;;1.85;;
73296;SDS011;61524;50.938;11.396;2022-07-29T00:57:53;3.92;;;1.50;;
73296;SDS011;61524;50.938;11.396;2022-07-29T01:00:21;4.32;;;2.28;;
73296;SDS011;61524;50.938;11.396;2022-07-29T01:02:50;5.38;;;2.13;;
73296;SDS011;61524;50.938;11.396;2022-07-29T01:05:22;4.75;;;1.92;;
73296;SDS011;61524;50.938;11.396;2022-07-29T01:07:52;6.00;;;2.03;;
73296;SDS011;61524;50.938;11.396;2022-07-29T01:10:19;9.43;;;2.95;;
73296;SDS011;61524;50.938;11.396;2022-07-29T01:12:47;6.13;;;1.85;;
73296;SDS011;61524;50.938;11.396;2022-07-29T01:15:14;4.63;;;1.95;;
73296;SDS011;61524;50.938;11.396;2022-07-29T01:30:53;5.30;;;1.98;;
73296;SDS011;61524;50.938;11.396;2022-07-29T01:33:19;7.00;;;2.55;;
73296;SDS011;61524;50.938;11.396;2022-07-29T01:36:13;5.70;;;1.90;;
73296;SDS011;61524;50.938;11.396;2022-07-29T01:38:42;4.38;;;1.42;;
73296;SDS011;61524;50.938;11.396;2022-07-29T01:41:14;3.83;;;1.63;;
73296;SDS011;61524;50.938;11.396;2022-07-29T01:46:20;5.45;;;1.83;;
73296;SDS011;61524;50.938;11.396;2022-07-29T01:48:53;6.30;;;1.55;;
73296;SDS011;61524;50.938;11.396;2022-07-29T01:51:28;4.32;;;2.00;;
73296;SDS011;61524;50.938;11.396;2022-07-29T01:56:38;5.43;;;1.98;;
73296;SDS011;61524;50.938;11.396;2022-07-29T01:59:06;4.28;;;1.90;;
73296;SDS011;61524;50.938;11.396;2022-07-29T02:01:33;5.07;;;1.88;;
73296;SDS011;61524;50.938;11.396;2022-07-29T02:04:03;8.30;;;1.80;;
73296;SDS011;61524;50.938;11.396;2022-07-29T02:06:32;5.22;;;1.85;;
73296;SDS011;61524;50.938;11.396;2022-07-29T02:08:59;5.30;;;3.00;;
73296;SDS011;61524;50.938;11.396;2022-07-29T02:11:27;6.55;;;2.03;;
73296;SDS011;61524;50.938;11.396;2022-07-29T02:13:55;6.95;;;2.10;;
73296;SDS011;61524;50.938;11.396;2022-07-29T02:16:22;4.93;;;1.88;;
73296;SDS011;61524;50.938;11.396;2022-07-29T02:18:52;6.07;;;2.08;;
73296;SDS011;61524;50.938;11.396;2022-07-29T02:21:19;6.68;;;2.05;;
73296;SDS011;61524;50.938;11.396;2022-07-29T02:23:48;3.45;;;1.60;;
73296;SDS011;61524;50.938;11.396;2022-07-29T02:26:17;3.95;;;1.60;;
73296;SDS011;61524;50.938;11.396;2022-07-29T02:28:44;4.25;;;2.00;;
73296;SDS011;61524;50.938;11.396;2022-07-29T02:31:11;4.28;;;1.70;;
73296;SDS011;61524;50.938;11.396;2022-07-29T02:33:38;4.00;;;1.63;;
73296;SDS011;61524;50.938;11.396;2022-07-29T02:36:06;5.85;;;2.00;;
73296;SDS011;61524;50.938;11.396;2022-07-29T02:38:32;4.25;;;2.08;;
73296;SDS011;61524;50.938;11.396;2022-07-29T02:41:29;4.50;;;1.75;;
73296;SDS011;61524;50.938;11.396;2022-07-29T02:44:10;4.25;;;1.80;;
73296;SDS011;61524;50.938;11.396;2022-07-29T02:46:37;5.95;;;2.00;;
73296;SDS011;61524;50.938;11.396;2022-07-29T02:51:47;5.35;;;1.73;;
73296;SDS011;61524;50.938;11.396;2022-07-29T02:54:22;6.57;;;2.00;;
73296;SDS011;61524;50.938;11.396;2022-07-29T02:56:56;4.65;;;2.30;;
73296;SDS011;61524;50.938;11.396;2022-07-29T02:59:26;3.53;;;1.50;;
73296;SDS011;61524;50.938;11.396;2022-07-29T03:01:55;4.57;;;1.90;;
73296;SDS011;61524;50.938;11.396;2022-07-29T03:04:24;2.90;;;1.77;;
73296;SDS011;61524;50.938;11.396;2022-07-29T03:06:51;5.25;;;1.60;;
73296;SDS011;61524;50.938;11.396;2022-07-29T03:09:17;5.45;;;2.50;;
73296;SDS011;61524;50.938;11.396;2022-07-29T03:11:43;5.28;;;1.88;;
73296;SDS011;61524;50.938;11.396;2022-07-29T03:14:10;6.78;;;2.00;;
73296;SDS011;61524;50.938;11.396;2022-07-29T03:16:36;5.35;;;1.85;;
73296;SDS011;61524;50.938;11.396;2022-07-29T03:19:02;4.63;;;1.95;;
73296;SDS011;61524;50.938;11.396;2022-07-29T03:21:29;5.82;;;2.03;;
73296;SDS011;61524;50.938;11.396;2022-07-29T03:23:55;5.30;;;2.38;;
73296;SDS011;61524;50.938;11.396;2022-07-29T03:26:20;3.72;;;1.73;;
73296;SDS011;61524;50.938;11.396;2022-07-29T03:28:46;3.72;;;1.90;;
73296;SDS011;61524;50.938;11.396;2022-07-29T03:31:11;8.95;;;2.10;;
73296;SDS011;61524;50.938;11.396;2022-07-29T03:33:37;5.40;;;1.67;;
73296;SDS011;61524;50.938;11.396;2022-07-29T03:36:02;4.15;;;1.70;;
73296;SDS011;61524;50.938;11.396;2022-07-29T03:38:29;3.90;;;1.73;;
73296;SDS011;61524;50.938;11.396;2022-07-29T03:40:56;6.93;;;1.90;;
73296;SDS011;61524;50.938;11.396;2022-07-29T03:43:26;3.78;;;1.92;;
73296;SDS011;61524;50.938;11.396;2022-07-29T03:45:56;6.28;;;2.08;;
73296;SDS011;61524;50.938;11.396;2022-07-29T03:48:25;5.60;;;1.95;;
73296;SDS011;61524;50.938;11.396;2022-07-29T03:50:52;3.97;;;1.80;;
73296;SDS011;61524;50.938;11.396;2022-07-29T03:53:18;5.07;;;1.83;;
73296;SDS011;61524;50.938;11.396;2022-07-29T03:55:45;3.85;;;1.60;;
73296;SDS011;61524;50.938;11.396;2022-07-29T03:58:14;4.20;;;1.85;;
73296;SDS011;61524;50.938;11.396;2022-07-29T04:00:42;4.35;;;1.98;;
73296;SDS011;61524;50.938;11.396;2022-07-29T04:03:09;3.05;;;1.63;;
73296;SDS011;61524;50.938;11.396;2022-07-29T04:05:35;7.72;;;1.95;;
73296;SDS011;61524;50.938;11.396;2022-07-29T04:08:00;6.80;;;2.13;;
73296;SDS011;61524;50.938;11.396;2022-07-29T04:10:26;4.95;;;1.85;;
73296;SDS011;61524;50.938;11.396;2022-07-29T04:12:52;5.60;;;1.85;;
73296;SDS011;61524;50.938;11.396;2022-07-29T04:15:18;4.88;;;2.05;;
73296;SDS011;61524;50.938;11.396;2022-07-29T04:17:43;5.18;;;1.75;;
73296;SDS011;61524;50.938;11.396;2022-07-29T04:20:09;11.80;;;2.53;;
73296;SDS011;61524;50.938;11.396;2022-07-29T04:22:38;6.88;;;1.88;;
73296;SDS011;61524;50.938;11.396;2022-07-29T04:25:06;5.18;;;2.05;;
73296;SDS011;61524;50.938;11.396;2022-07-29T04:27:32;4.32;;;1.80;;
73296;SDS011;61524;50.938;11.396;2022-07-29T04:29:58;5.80;;;2.15;;
73296;SDS011;61524;50.938;11.396;2022-07-29T04:32:24;3.85;;;1.45;;
73296;SDS011;61524;50.938;11.396;2022-07-29T04:34:50;7.03;;;1.92;;
73296;SDS011;61524;50.938;11.396;2022-07-29T04:37:15;5.18;;;1.58;;
73296;SDS011;61524;50.938;11.396;2022-07-29T04:39:41;6.47;;;1.98;;
73296;SDS011;61524;50.938;11.396;2022-07-29T04:42:07;3.35;;;1.42;;
73296;SDS011;61524;50.938;11.396;2022-07-29T04:44:32;4.85;;;1.80;;
73296;SDS011;61524;50.938;11.396;2022-07-29T04:46:57;6.40;;;2.67;;
73296;SDS011;61524;50.938;11.396;2022-07-29T04:49:23;4.55;;;1.63;;
73296;SDS011;61524;50.938;11.396;2022-07-29T04:51:49;7.28;;;1.85;;
73296;SDS011;61524;50.938;11.396;2022-07-29T04:54:14;14.25;;;2.47;;
73296;SDS011;61524;50.938;11.396;2022-07-29T04:56:40;5.82;;;1.98;;
73296;SDS011;61524;50.938;11.396;2022-07-29T04:59:06;8.77;;;2.17;;
73296;SDS011;61524;50.938;11.396;2022-07-29T05:01:32;4.85;;;2.67;;
73296;SDS011;61524;50.938;11.396;2022-07-29T05:03:57;9.27;;;1.92;;
73296;SDS011;61524;50.938;11.396;2022-07-29T05:06:22;10.20;;;2.33;;
73296;SDS011;61524;50.938;11.396;2022-07-29T05:08:48;5.20;;;2.30;;
73296;SDS011;61524;50.938;11.396;2022-07-29T05:11:13;3.95;;;1.70;;
73296;SDS011;61524;50.938;11.396;2022-07-29T05:13:39;4.45;;;1.52;;
73296;SDS011;61524;50.938;11.396;2022-07-29T05:16:04;5.13;;;1.90;;
73296;SDS011;61524;50.938;11.396;2022-07-29T05:18:30;5.78;;;1.85;;
73296;SDS011;61524;50.938;11.396;2022-07-29T05:20:55;6.57;;;1.85;;
73296;SDS011;61524;50.938;11.396;2022-07-29T05:23:21;10.95;;;2.38;;
73296;SDS011;61524;50.938;11.396;2022-07-29T05:25:46;5.70;;;1.80;;
73296;SDS011;61524;50.938;11.396;2022-07-29T05:28:12;5.45;;;1.83;;
73296;SDS011;61524;50.938;11.396;2022-07-29T05:30:37;7.10;;;2.20;;
73296;SDS011;61524;50.938;11.396;2022-07-29T05:33:03;6.63;;;2.25;;
73296;SDS011;61524;50.938;11.396;2022-07-29T05:35:28;4.85;;;1.73;;
73296;SDS011;61524;50.938;11.396;2022-07-29T05:37:54;5.72;;;1.73;;
73296;SDS011;61524;50.938;11.396;2022-07-29T05:40:19;5.10;;;1.90;;
73296;SDS011;61524;50.938;11.396;2022-07-29T05:42:45;7.53;;;2.17;;
73296;SDS011;61524;50.938;11.396;2022-07-29T05:45:10;7.13;;;2.03;;
73296;SDS011;61524;50.938;11.396;2022-07-29T05:47:36;5.90;;;2.08;;
73296;SDS011;61524;50.938;11.396;2022-07-29T05:50:01;5.70;;;1.77;;
73296;SDS011;61524;50.938;11.396;2022-07-29T05:52:27;4.38;;;1.48;;
73296;SDS011;61524;50.938;11.396;2022-07-29T05:54:53;5.30;;;1.85;;
73296;SDS011;61524;50.938;11.396;2022-07-29T05:57:19;5.32;;;1.73;;
73296;SDS011;61524;50.938;11.396;2022-07-29T05:59:47;3.45;;;1.50;;
73296;SDS011;61524;50.938;11.396;2022-07-29T06:02:13;6.60;;;2.40;;
73296;SDS011;61524;50.938;11.396;2022-07-29T06:04:39;4.95;;;1.75;;
73296;SDS011;61524;50.938;11.396;2022-07-29T06:07:05;3.45;;;1.80;;
73296;SDS011;61524;50.938;11.396;2022-07-29T06:09:31;6.57;;;1.95;;
73296;SDS011;61524;50.938;11.396;2022-07-29T06:11:58;8.45;;;1.90;;
73296;SDS011;61524;50.938;11.396;2022-07-29T06:14:23;4.72;;;1.70;;
73296;SDS011;61524;50.938;11.396;2022-07-29T06:16:49;7.65;;;1.80;;
73296;SDS011;61524;50.938;11.396;2022-07-29T06:19:15;7.13;;;2.33;;
73296;SDS011;61524;50.938;11.396;2022-07-29T06:21:41;4.53;;;1.95;;
73296;SDS011;61524;50.938;11.396;2022-07-29T06:24:10;6.10;;;2.05;;
73296;SDS011;61524;50.938;11.396;2022-07-29T06:26:37;4.65;;;1.77;;
73296;SDS011;61524;50.938;11.396;2022-07-29T06:29:03;4.28;;;2.00;;
73296;SDS011;61524;50.938;11.396;2022-07-29T06:31:28;5.28;;;1.67;;
73296;SDS011;61524;50.938;11.396;2022-07-29T06:33:54;6.78;;;2.13;;
73296;SDS011;61524;50.938;11.396;2022-07-29T06:36:19;5.78;;;1.70;;
73296;SDS011;61524;50.938;11.396;2022-07-29T06:38:45;5.53;;;1.67;;
73296;SDS011;61524;50.938;11.396;2022-07-29T06:41:10;4.90;;;1.90;;
73296;SDS011;61524;50.938;11.396;2022-07-29T06:43:41;4.68;;;1.88;;
73296;SDS011;61524;50.938;11.396;2022-07-29T06:46:08;4.57;;;1.70;;
73296;SDS011;61524;50.938;11.396;2022-07-29T06:48:38;3.70;;;1.63;;
73296;SDS011;61524;50.938;11.396;2022-07-29T06:51:05;6.90;;;1.85;;
73296;SDS011;61524;50.938;11.396;2022-07-29T06:53:32;5.40;;;2.08;;
73296;SDS011;61524;50.938;11.396;2022-07-29T06:55:58;5.28;;;1.80;;
73296;SDS011;61524;50.938;11.396;2022-07-29T06:58:28;4.32;;;1.60;;
73296;SDS011;61524;50.938;11.396;2022-07-29T07:00:53;5.78;;;1.75;;
73296;SDS011;61524;50.938;11.396;2022-07-29T07:03:19;7.20;;;2.10;;
73296;SDS011;61524;50.938;11.396;2022-07-29T07:05:45;4.03;;;2.08;;
73296;SDS011;61524;50.938;11.396;2022-07-29T07:08:11;4.60;;;1.77;;
73296;SDS011;61524;50.938;11.396;2022-07-29T07:13:03;4.45;;;1.73;;
73296;SDS011;61524;50.938;11.396;2022-07-29T07:15:29;4.00;;;1.80;;
73296;SDS011;61524;50.938;11.396;2022-07-29T07:17:55;10.50;;;2.08;;
73296;SDS011;61524;50.938;11.396;2022-07-29T07:20:20;8.02;;;2.40;;
73296;SDS011;61524;50.938;11.396;2022-07-29T07:22:46;3.72;;;1.77;;
73296;SDS011;61524;50.938;11.396;2022-07-29T07:25:11;4.13;;;2.15;;
73296;SDS011;61524;50.938;11.396;2022-07-29T07:27:38;4.05;;;1.63;;
73296;SDS011;61524;50.938;11.396;2022-07-29T07:30:04;10.02;;;2.20;;
73296;SDS011;61524;50.938;11.396;2022-07-29T07:32:31;4.57;;;1.70;;
73296;SDS011;61524;50.938;11.396;2022-07-29T07:34:57;5.10;;;2.33;;
73296;SDS011;61524;50.938;11.396;2022-07-29T07:37:24;5.65;;;2.45;;
73296;SDS011;61524;50.938;11.396;2022-07-29T07:39:50;8.00;;;2.00;;
73296;SDS011;61524;50.938;11.396;2022-07-29T07:42:16;4.55;;;2.42;;
73296;SDS011;61524;50.938;11.396;2022-07-29T07:44:42;6.78;;;2.15;;
73296;SDS011;61524;50.938;11.396;2022-07-29T07:47:08;6.22;;;2.40;;
73296;SDS011;61524;50.938;11.396;2022-07-29T07:49:34;6.43;;;2.30;;
73296;SDS011;61524;50.938;11.396;2022-07-29T07:51:59;8.32;;;2.60;;
73296;SDS011;61524;50.938;11.396;2022-07-29T07:54:25;8.35;;;2.67;;
73296;SDS011;61524;50.938;11.396;2022-07-29T07:56:50;8.63;;;2.47;;
73296;SDS011;61524;50.938;11.396;2022-07-29T07:59:16;7.40;;;2.35;;
73296;SDS011;61524;50.938;11.396;2022-07-29T08:01:42;8.10;;;2.05;;
73296;SDS011;61524;50.938;11.396;2022-07-29T08:04:08;11.68;;;2.88;;
73296;SDS011;61524;50.938;11.396;2022-07-29T08:06:34;6.07;;;2.75;;
73296;SDS011;61524;50.938;11.396;2022-07-29T08:09:01;7.60;;;2.70;;
73296;SDS011;61524;50.938;11.396;2022-07-29T08:11:27;9.50;;;2.30;;
73296;SDS011;61524;50.938;11.396;2022-07-29T08:13:53;9.05;;;3.10;;
73296;SDS011;61524;50.938;11.396;2022-07-29T08:16:19;5.68;;;2.40;;
73296;SDS011;61524;50.938;11.396;2022-07-29T08:18:45;8.00;;;2.78;;
73296;SDS011;61524;50.938;11.396;2022-07-29T08:21:11;9.57;;;2.33;;
73296;SDS011;61524;50.938;11.396;2022-07-29T08:26:11;7.90;;;2.45;;
73296;SDS011;61524;50.938;11.396;2022-07-29T08:28:38;9.60;;;3.15;;
73296;SDS011;61524;50.938;11.396;2022-07-29T08:31:04;7.35;;;2.17;;
73296;SDS011;61524;50.938;11.396;2022-07-29T08:33:30;9.43;;;2.90;;
73296;SDS011;61524;50.938;11.396;2022-07-29T08:35:56;9.07;;;2.85;;
73296;SDS011;61524;50.938;11.396;2022-07-29T08:38:21;8.05;;;2.25;;
73296;SDS011;61524;50.938;11.396;2022-07-29T08:40:46;6.55;;;2.10;;
73296;SDS011;61524;50.938;11.396;2022-07-29T08:43:12;5.47;;;2.33;;
73296;SDS011;61524;50.938;11.396;2022-07-29T08:45:44;7.70;;;2.63;;
73296;SDS011;61524;50.938;11.396;2022-07-29T08:48:12;8.43;;;2.47;;
73296;SDS011;61524;50.938;11.396;2022-07-29T08:53:04;5.47;;;2.58;;
73296;SDS011;61524;50.938;11.396;2022-07-29T08:55:32;6.35;;;2.30;;
73296;SDS011;61524;50.938;11.396;2022-07-29T08:57:58;5.65;;;1.80;;
73296;SDS011;61524;50.938;11.396;2022-07-29T09:00:25;5.43;;;2.00;;
73296;SDS011;61524;50.938;11.396;2022-07-29T09:02:56;6.25;;;1.90;;
73296;SDS011;61524;50.938;11.396;2022-07-29T09:05:22;5.15;;;2.03;;
73296;SDS011;61524;50.938;11.396;2022-07-29T09:07:49;5.88;;;2.40;;
73296;SDS011;61524;50.938;11.396;2022-07-29T09:10:15;18.58;;;2.50;;
73296;SDS011;61524;50.938;11.396;2022-07-29T09:12:41;6.70;;;2.25;;
73296;SDS011;61524;50.938;11.396;2022-07-29T09:15:07;8.63;;;1.88;;
73296;SDS011;61524;50.938;11.396;2022-07-29T09:17:43;4.93;;;2.47;;
73296;SDS011;61524;50.938;11.396;2022-07-29T09:20:16;5.97;;;2.10;;
73296;SDS011;61524;50.938;11.396;2022-07-29T09:22:43;6.03;;;2.00;;
73296;SDS011;61524;50.938;11.396;2022-07-29T09:25:13;6.63;;;2.53;;
73296;SDS011;61524;50.938;11.396;2022-07-29T09:27:39;4.95;;;2.40;;
73296;SDS011;61524;50.938;11.396;2022-07-29T09:30:06;7.20;;;2.13;;
73296;SDS011;61524;50.938;11.396;2022-07-29T09:32:54;7.25;;;2.10;;
73296;SDS011;61524;50.938;11.396;2022-07-29T09:35:23;10.57;;;2.17;;
73296;SDS011;61524;50.938;11.396;2022-07-29T09:37:49;9.93;;;2.30;;
73296;SDS011;61524;50.938;11.396;2022-07-29T09:40:16;5.90;;;2.10;;
73296;SDS011;61524;50.938;11.396;2022-07-29T09:42:43;7.95;;;2.30;;
73296;SDS011;61524;50.938;11.396;2022-07-29T09:47:45;6.68;;;2.30;;
73296;SDS011;61524;50.938;11.396;2022-07-29T09:50:14;5.68;;;2.25;;
73296;SDS011;61524;50.938;11.396;2022-07-29T09:52:44;6.55;;;2.15;;
73296;SDS011;61524;50.938;11.396;2022-07-29T09:55:15;4.40;;;1.83;;
73296;SDS011;61524;50.938;11.396;2022-07-29T09:57:41;8.68;;;2.80;;
73296;SDS011;61524;50.938;11.396;2022-07-29T10:00:11;4.88;;;2.30;;
73296;SDS011;61524;50.938;11.396;2022-07-29T10:02:39;4.78;;;1.98;;
73296;SDS011;61524;50.938;11.396;2022-07-29T10:05:15;6.80;;;1.98;;
73296;SDS011;61524;50.938;11.396;2022-07-29T10:08:01;5.55;;;2.10;;
73296;SDS011;61524;50.938;11.396;2022-07-29T10:10:28;3.95;;;1.70;;
73296;SDS011;61524;50.938;11.396;2022-07-29T10:13:02;9.88;;;2.50;;
73296;SDS011;61524;50.938;11.396;2022-07-29T10:15:31;6.50;;;2.00;;
73296;SDS011;61524;50.938;11.396;2022-07-29T10:18:02;5.28;;;1.83;;
73296;SDS011;61524;50.938;11.396;2022-07-29T10:20:27;8.18;;;1.80;;
73296;SDS011;61524;50.938;11.396;2022-07-29T10:22:53;5.88;;;2.17;;
73296;SDS011;61524;50.938;11.396;2022-07-29T10:25:20;5.75;;;2.00;;
73296;SDS011;61524;50.938;11.396;2022-07-29T10:30:13;4.82;;;1.80;;
73296;SDS011;61524;50.938;11.396;2022-07-29T10:43:59;5.93;;;2.00;;
73296;SDS011;61524;50.938;11.396;2022-07-29T10:54:35;5.88;;;2.40;;
73296;SDS011;61524;50.938;11.396;2022-07-29T10:57:11;5.60;;;2.03;;
73296;SDS011;61524;50.938;11.396;2022-07-29T10:59:46;4.40;;;2.20;;
73296;SDS011;61524;50.938;11.396;2022-07-29T11:05:07;4.60;;;1.90;;
73296;SDS011;61524;50.938;11.396;2022-07-29T11:07:34;5.55;;;2.45;;
73296;SDS011;61524;50.938;11.396;2022-07-29T11:22:59;11.90;;;2.70;;
73296;SDS011;61524;50.938;11.396;2022-07-29T11:25:25;7.13;;;2.38;;
73296;SDS011;61524;50.938;11.396;2022-07-29T11:27:52;8.40;;;2.58;;
73296;SDS011;61524;50.938;11.396;2022-07-29T11:30:19;7.07;;;2.53;;
73296;SDS011;61524;50.938;11.396;2022-07-29T11:32:45;5.47;;;3.20;;
73296;SDS011;61524;50.938;11.396;2022-07-29T11:49:12;8.73;;;2.78;;
73296;SDS011;61524;50.938;11.396;2022-07-29T11:51:43;8.02;;;2.92;;
73296;SDS011;61524;50.938;11.396;2022-07-29T11:54:25;11.02;;;2.85;;
73296;SDS011;61524;50.938;11.396;2022-07-29T11:56:55;9.95;;;2.67;;
73296;SDS011;61524;50.938;11.396;2022-07-29T11:59:22;8.70;;;2.83;;
73296;SDS011;61524;50.938;11.396;2022-07-29T12:01:53;9.52;;;2.83;;
73296;SDS011;61524;50.938;11.396;2022-07-29T12:04:22;5.70;;;2.63;;
73296;SDS011;61524;50.938;11.396;2022-07-29T12:06:57;5.32;;;2.65;;
73296;SDS011;61524;50.938;11.396;2022-07-29T12:09:23;4.45;;;2.50;;
73296;SDS011;61524;50.938;11.396;2022-07-29T12:11:49;7.60;;;2.70;;
73296;SDS011;61524;50.938;11.396;2022-07-29T12:14:24;8.70;;;2.85;;
73296;SDS011;61524;50.938;11.396;2022-07-29T12:16:57;14.02;;;2.83;;
73296;SDS011;61524;50.938;11.396;2022-07-29T12:19:23;9.23;;;2.75;;
73296;SDS011;61524;50.938;11.396;2022-07-29T12:21:50;5.20;;;2.35;;
73296;SDS011;61524;50.938;11.396;2022-07-29T12:24:17;11.60;;;3.13;;
73296;SDS011;61524;50.938;11.396;2022-07-29T12:26:54;6.43;;;2.63;;
73296;SDS011;61524;50.938;11.396;2022-07-29T12:29:21;6.50;;;2.20;;
73296;SDS011;61524;50.938;11.396;2022-07-29T12:31:50;6.25;;;2.40;;
73296;SDS011;61524;50.938;11.396;2022-07-29T12:34:19;10.60;;;2.60;;
73296;SDS011;61524;50.938;11.396;2022-07-29T12:36:45;7.03;;;2.95;;
73296;SDS011;61524;50.938;11.396;2022-07-29T12:39:11;7.65;;;2.63;;
73296;SDS011;61524;50.938;11.396;2022-07-29T12:41:37;4.65;;;2.47;;
73296;SDS011;61524;50.938;11.396;2022-07-29T12:46:29;6.97;;;2.63;;
73296;SDS011;61524;50.938;11.396;2022-07-29T12:48:54;9.85;;;3.13;;
73296;SDS011;61524;50.938;11.396;2022-07-29T13:19:31;7.50;;;2.80;;
73296;SDS011;61524;50.938;11.396;2022-07-29T13:22:22;7.65;;;2.85;;
73296;SDS011;61524;50.938;11.396;2022-07-29T13:24:59;21.33;;;3.53;;
73296;SDS011;61524;50.938;11.396;2022-07-29T13:27:32;5.88;;;2.65;;
73296;SDS011;61524;50.938;11.396;2022-07-29T13:29:59;8.18;;;2.55;;
73296;SDS011;61524;50.938;11.396;2022-07-29T13:32:26;7.80;;;3.50;;
73296;SDS011;61524;50.938;11.396;2022-07-29T13:34:52;7.60;;;3.45;;
73296;SDS011;61524;50.938;11.396;2022-07-29T13:37:18;8.80;;;3.20;;
73296;SDS011;61524;50.938;11.396;2022-07-29T13:42:10;5.85;;;2.78;;
73296;SDS011;61524;50.938;11.396;2022-07-29T13:44:38;5.57;;;2.45;;
73296;SDS011;61524;50.938;11.396;2022-07-29T13:47:04;6.85;;;3.13;;
73296;SDS011;61524;50.938;11.396;2022-07-29T13:49:30;8.13;;;2.70;;
73296;SDS011;61524;50.938;11.396;2022-07-29T13:51:55;6.15;;;3.00;;
73296;SDS011;61524;50.938;11.396;2022-07-29T13:54:21;7.63;;;2.53;;
73296;SDS011;61524;50.938;11.396;2022-07-29T13:56:46;5.18;;;2.83;;
73296;SDS011;61524;50.938;11.396;2022-07-29T13:59:12;6.55;;;2.85;;
73296;SDS011;61524;50.938;11.396;2022-07-29T14:01:38;8.80;;;2.90;;
73296;SDS011;61524;50.938;11.396;2022-07-29T14:04:06;5.47;;;2.42;;
73296;SDS011;61524;50.938;11.396;2022-07-29T14:06:31;23.40;;;4.15;;
73296;SDS011;61524;50.938;11.396;2022-07-29T14:08:57;9.50;;;2.75;;
73296;SDS011;61524;50.938;11.396;2022-07-29T14:11:22;12.10;;;3.00;;
73296;SDS011;61524;50.938;11.396;2022-07-29T14:13:48;9.02;;;2.70;;
73296;SDS011;61524;50.938;11.396;2022-07-29T14:16:13;6.85;;;2.80;;
73296;SDS011;61524;50.938;11.396;2022-07-29T14:18:39;5.53;;;2.55;;
73296;SDS011;61524;50.938;11.396;2022-07-29T14:21:04;8.98;;;2.80;;
73296;SDS011;61524;50.938;11.396;2022-07-29T14:23:30;7.47;;;2.70;;
73296;SDS011;61524;50.938;11.396;2022-07-29T14:25:55;8.52;;;3.17;;
73296;SDS011;61524;50.938;11.396;2022-07-29T14:28:21;5.38;;;2.92;;
73296;SDS011;61524;50.938;11.396;2022-07-29T14:30:46;9.32;;;2.80;;
73296;SDS011;61524;50.938;11.396;2022-07-29T14:33:12;6.78;;;2.80;;
73296;SDS011;61524;50.938;11.396;2022-07-29T14:35:37;4.50;;;2.53;;
73296;SDS011;61524;50.938;11.396;2022-07-29T14:38:03;5.80;;;2.50;;
73296;SDS011;61524;50.938;11.396;2022-07-29T14:40:28;4.57;;;2.55;;
73296;SDS011;61524;50.938;11.396;2022-07-29T14:42:54;4.57;;;2.38;;
73296;SDS011;61524;50.938;11.396;2022-07-29T14:45:19;7.10;;;2.70;;
73296;SDS011;61524;50.938;11.396;2022-07-29T14:47:45;5.32;;;2.60;;
73296;SDS011;61524;50.938;11.396;2022-07-29T14:50:10;3.85;;;2.50;;
73296;SDS011;61524;50.938;11.396;2022-07-29T14:52:36;5.03;;;2.83;;
73296;SDS011;61524;50.938;11.396;2022-07-29T14:55:02;5.05;;;2.88;;
73296;SDS011;61524;50.938;11.396;2022-07-29T14:57:28;7.15;;;3.15;;
73296;SDS011;61524;50.938;11.396;2022-07-29T14:59:54;6.35;;;2.47;;
73296;SDS011;61524;50.938;11.396;2022-07-29T15:02:20;5.25;;;2.42;;
73296;SDS011;61524;50.938;11.396;2022-07-29T15:04:45;6.28;;;2.90;;
73296;SDS011;61524;50.938;11.396;2022-07-29T15:07:12;5.07;;;2.72;;
73296;SDS011;61524;50.938;11.396;2022-07-29T15:09:38;4.68;;;2.65;;
73296;SDS011;61524;50.938;11.396;2022-07-29T15:12:04;8.13;;;2.90;;
73296;SDS011;61524;50.938;11.396;2022-07-29T15:14:29;5.43;;;2.75;;
73296;SDS011;61524;50.938;11.396;2022-07-29T15:16:56;6.20;;;2.92;;
73296;SDS011;61524;50.938;11.396;2022-07-29T15:19:22;8.70;;;2.83;;
73296;SDS011;61524;50.938;11.396;2022-07-29T15:21:47;4.80;;;2.83;;
73296;SDS011;61524;50.938;11.396;2022-07-29T15:24:13;5.30;;;2.60;;
73296;SDS011;61524;50.938;11.396;2022-07-29T15:26:38;5.25;;;2.70;;
73296;SDS011;61524;50.938;11.396;2022-07-29T15:29:04;5.30;;;2.53;;
73296;SDS011;61524;50.938;11.396;2022-07-29T15:31:29;5.35;;;2.78;;
73296;SDS011;61524;50.938;11.396;2022-07-29T15:33:55;4.28;;;2.90;;
73296;SDS011;61524;50.938;11.396;2022-07-29T15:36:20;5.95;;;3.05;;
73296;SDS011;61524;50.938;11.396;2022-07-29T15:38:45;5.57;;;2.60;;
73296;SDS011;61524;50.938;11.396;2022-07-29T15:41:14;5.50;;;2.80;;
73296;SDS011;61524;50.938;11.396;2022-07-29T15:43:42;5.85;;;2.88;;
73296;SDS011;61524;50.938;11.396;2022-07-29T15:46:12;4.82;;;3.05;;
73296;SDS011;61524;50.938;11.396;2022-07-29T15:49:00;8.18;;;3.17;;
73296;SDS011;61524;50.938;11.396;2022-07-29T15:51:27;5.78;;;2.53;;
73296;SDS011;61524;50.938;11.396;2022-07-29T15:53:52;5.65;;;2.80;;
73296;SDS011;61524;50.938;11.396;2022-07-29T15:56:18;6.47;;;2.70;;
73296;SDS011;61524;50.938;11.396;2022-07-29T15:58:44;4.53;;;2.53;;
73296;SDS011;61524;50.938;11.396;2022-07-29T16:01:09;6.30;;;3.20;;
73296;SDS011;61524;50.938;11.396;2022-07-29T16:03:35;7.78;;;3.38;;
73296;SDS011;61524;50.938;11.396;2022-07-29T16:06:01;5.07;;;2.83;;
73296;SDS011;61524;50.938;11.396;2022-07-29T16:08:26;4.25;;;2.70;;
73296;SDS011;61524;50.938;11.396;2022-07-29T16:10:52;6.25;;;3.08;;
73296;SDS011;61524;50.938;11.396;2022-07-29T16:13:17;9.77;;;3.20;;
73296;SDS011;61524;50.938;11.396;2022-07-29T16:15:43;8.52;;;2.65;;
73296;SDS011;61524;50.938;11.396;2022-07-29T16:18:08;5.90;;;2.90;;
73296;SDS011;61524;50.938;11.396;2022-07-29T16:20:35;5.47;;;2.83;;
73296;SDS011;61524;50.938;11.396;2022-07-29T16:23:01;6.53;;;3.28;;
73296;SDS011;61524;50.938;11.396;2022-07-29T16:25:26;4.28;;;2.60;;
73296;SDS011;61524;50.938;11.396;2022-07-29T16:27:52;6.43;;;2.67;;
73296;SDS011;61524;50.938;11.396;2022-07-29T16:30:17;6.00;;;2.78;;